Time;durP1;ratioP1;P1;durP2;ratioP2;P2;SDS_P1;SDS_P2;PMS_P1;PMS_P2;Temp;Humidity;BMP_temperature;BMP_pressure;BME280_temperature;BME280_humidity;BME280_pressure;Samples;Min_cycle;Max_cycle;Signal;HPM_P1;HPM_P2
2023/07/10 00:01:32;;;;;;;29.73;22.45;;;18.40;99.90;;;;;;5091255;28;20044;-65
2023/07/10 00:03:57;;;;;;;33.45;24.48;;;18.40;99.90;;;;;;5093030;28;20051;-65
2023/07/10 00:06:23;;;;;;;34.25;25.02;;;18.40;99.90;;;;;;5091651;28;20468;-65
2023/07/10 00:08:49;;;;;;;30.65;24.48;;;18.50;99.90;;;;;;5091058;28;20035;-65
2023/07/10 00:11:31;;;;;;;30.80;24.15;;;18.50;99.90;;;;;;5092123;28;20038;-65
2023/07/10 00:13:58;;;;;;;34.03;24.88;;;18.50;99.90;;;;;;5091925;28;20051;-65
2023/07/10 00:16:26;;;;;;;36.42;24.55;;;18.50;99.90;;;;;;5091664;28;20201;-65
2023/07/10 00:18:51;;;;;;;26.42;21.85;;;18.40;99.90;;;;;;5093121;28;20048;-64
2023/07/10 00:21:18;;;;;;;30.70;24.02;;;18.50;99.90;;;;;;5091737;28;20035;-64
2023/07/10 00:23:44;;;;;;;28.55;24.25;;;18.50;99.90;;;;;;5125011;27;20058;-64
2023/07/10 00:26:17;;;;;;;28.98;23.70;;;18.40;99.90;;;;;;5091710;28;20080;-64
2023/07/10 00:28:43;;;;;;;30.70;23.02;;;18.40;99.90;;;;;;5125326;27;20099;-65
2023/07/10 00:31:09;;;;;;;26.15;22.25;;;18.40;99.90;;;;;;5091275;28;20044;-65
2023/07/10 00:33:35;;;;;;;31.88;22.10;;;18.40;99.90;;;;;;5092882;28;20043;-64
2023/07/10 00:36:00;;;;;;;37.47;25.92;;;18.40;99.90;;;;;;5092547;28;20040;-65
2023/07/10 00:38:30;;;;;;;29.83;23.20;;;18.40;99.90;;;;;;5124896;27;20413;-65
2023/07/10 00:41:03;;;;;;;27.45;20.35;;;18.40;99.90;;;;;;5090357;28;20042;-65
2023/07/10 00:43:39;;;;;;;27.77;20.90;;;18.30;99.90;;;;;;5091056;28;20497;-65
2023/07/10 00:46:24;;;;;;;29.73;24.00;;;18.30;99.90;;;;;;5093127;28;20063;-65
2023/07/10 00:49:06;;;;;;;37.75;25.58;;;18.30;99.90;;;;;;5092508;28;20056;-65
2023/07/10 00:51:38;;;;;;;35.92;25.25;;;18.40;99.90;;;;;;5090327;28;20040;-65
2023/07/10 00:54:04;;;;;;;34.15;25.23;;;18.40;99.90;;;;;;5074624;28;20063;-64
2023/07/10 00:56:39;;;;;;;24.98;20.08;;;18.40;99.90;;;;;;5090906;28;20036;-64
2023/07/10 00:59:24;;;;;;;;;;;18.40;99.90;;;;;;5074284;28;20055;-65
2023/07/10 01:02:17;;;;;;;21.63;19.35;;;18.40;99.90;;;;;;5091269;28;20376;-68
2023/07/10 01:04:48;;;;;;;26.27;22.05;;;18.40;99.90;;;;;;5092259;28;20111;-69
2023/07/10 01:07:16;;;;;;;27.15;22.67;;;18.40;99.90;;;;;;5091087;28;20047;-68
2023/07/10 01:09:48;;;;;;;30.38;23.88;;;18.40;99.90;;;;;;5073942;28;20036;-68
2023/07/10 01:12:13;;;;;;;24.75;18.13;;;18.40;99.90;;;;;;5073461;28;20506;-68
2023/07/10 01:14:39;;;;;;;19.25;16.98;;;18.30;99.90;;;;;;5092178;28;20125;-68
2023/07/10 01:17:07;;;;;;;20.65;16.60;;;18.30;99.90;;;;;;5091030;28;20036;-69
2023/07/10 01:19:34;;;;;;;27.73;19.08;;;18.30;99.90;;;;;;5091392;28;20492;-68
2023/07/10 01:22:00;;;;;;;22.55;18.30;;;18.20;99.90;;;;;;5092099;28;20425;-68
2023/07/10 01:24:26;;;;;;;20.05;16.95;;;18.20;99.90;;;;;;5081627;28;20043;-68
2023/07/10 01:26:53;;;;;;;20.35;17.60;;;18.20;99.90;;;;;;5071007;28;20040;-68
2023/07/10 01:29:30;;;;;;;19.58;17.58;;;18.20;99.90;;;;;;5071726;28;20125;-68
2023/07/10 01:31:57;;;;;;;19.55;16.70;;;18.20;99.90;;;;;;5070177;28;20095;-69
2023/07/10 01:34:34;;;;;;;19.42;15.38;;;18.10;99.90;;;;;;5069899;28;20055;-68
2023/07/10 01:37:01;;;;;;;18.85;14.88;;;18.10;99.90;;;;;;5070976;28;20181;-68
2023/07/10 01:39:44;;;;;;;22.33;17.35;;;18.10;99.90;;;;;;5071630;28;20032;-68
2023/07/10 01:42:11;;;;;;;17.50;14.32;;;18.20;99.90;;;;;;5075336;28;20120;-68
2023/07/10 01:44:39;;;;;;;20.35;14.35;;;18.20;99.90;;;;;;5090052;28;20052;-68
2023/07/10 01:47:07;;;;;;;16.60;13.55;;;18.10;99.90;;;;;;5090200;28;20040;-69
2023/07/10 01:50:06;;;;;;;15.75;13.85;;;18.10;99.90;;;;;;5090573;28;20051;-69
2023/07/10 01:52:32;;;;;;;15.32;11.77;;;18.20;99.90;;;;;;5088679;28;20052;-69
2023/07/10 01:54:57;;;;;;;20.13;16.05;;;18.10;99.90;;;;;;5093911;28;20047;-69
2023/07/10 01:57:24;;;;;;;24.02;14.48;;;18.20;99.90;;;;;;5094306;28;20036;-69
2023/07/10 01:59:53;;;;;;;16.20;13.13;;;18.10;99.90;;;;;;5094181;28;20052;-68
2023/07/10 02:02:19;;;;;;;17.00;12.70;;;18.10;99.90;;;;;;5074750;28;20482;-68
2023/07/10 02:04:45;;;;;;;19.63;15.43;;;18.10;99.90;;;;;;5057567;28;20139;-68
2023/07/10 02:07:11;;;;;;;18.98;16.08;;;18.10;99.90;;;;;;5073854;28;20485;-68
2023/07/10 02:09:36;;;;;;;19.23;15.40;;;18.00;99.90;;;;;;5080367;28;20063;-68
2023/07/10 02:12:02;;;;;;;18.60;14.85;;;18.00;99.90;;;;;;5095528;28;20032;-68
2023/07/10 02:14:29;;;;;;;16.90;13.93;;;18.00;99.90;;;;;;5093940;28;20050;-68
2023/07/10 02:16:55;;;;;;;16.10;13.43;;;17.90;99.90;;;;;;5076433;28;20043;-68
2023/07/10 02:19:20;;;;;;;13.65;11.23;;;17.90;99.90;;;;;;5093912;28;20123;-68
2023/07/10 02:21:47;;;;;;;15.65;11.32;;;17.90;99.90;;;;;;5093662;28;20077;-69
2023/07/10 02:24:12;;;;;;;12.02;9.90;;;17.80;99.90;;;;;;5093631;28;20127;-64
2023/07/10 02:26:38;;;;;;;12.75;9.95;;;17.80;99.90;;;;;;5093948;28;20126;-64
2023/07/10 02:29:04;;;;;;;14.82;9.18;;;17.70;99.90;;;;;;5093705;28;20111;-64
2023/07/10 02:31:30;;;;;;;13.30;8.57;;;17.80;99.90;;;;;;5093563;28;20101;-64
2023/07/10 02:33:56;;;;;;;15.20;8.95;;;17.70;99.90;;;;;;5093623;28;20036;-64
2023/07/10 02:36:23;;;;;;;14.23;8.48;;;17.70;99.90;;;;;;5092434;28;20442;-65
2023/07/10 02:38:49;;;;;;;10.98;7.03;;;17.70;99.90;;;;;;5093599;28;20536;-65
2023/07/10 02:41:15;;;;;;;10.57;6.07;;;17.70;99.90;;;;;;5094998;28;20124;-65
2023/07/10 02:43:41;;;;;;;9.80;6.55;;;17.60;99.90;;;;;;5092701;28;20128;-64
2023/07/10 02:46:06;;;;;;;10.27;6.45;;;17.60;99.90;;;;;;5127510;27;20048;-65
2023/07/10 02:48:32;;;;;;;9.23;6.10;;;17.60;99.90;;;;;;5127229;27;20039;-65
2023/07/10 02:50:58;;;;;;;7.97;4.75;;;17.60;99.90;;;;;;5094063;28;20101;-65
2023/07/10 02:53:23;;;;;;;8.45;4.95;;;17.60;99.90;;;;;;5076656;28;20032;-65
2023/07/10 02:55:49;;;;;;;8.93;5.55;;;17.60;99.90;;;;;;5093920;28;20485;-65
2023/07/10 02:58:15;;;;;;;7.88;5.15;;;17.60;99.90;;;;;;5075744;28;20040;-65
2023/07/10 03:00:40;;;;;;;9.27;4.93;;;17.60;99.90;;;;;;5076167;28;20047;-65
2023/07/10 03:03:06;;;;;;;9.48;4.47;;;17.50;99.90;;;;;;5092537;28;20044;-65
2023/07/10 03:05:32;;;;;;;7.47;4.20;;;17.50;99.90;;;;;;5092726;28;20048;-65
2023/07/10 03:07:57;;;;;;;7.70;3.70;;;17.40;99.90;;;;;;5094323;28;20511;-65
2023/07/10 03:10:23;;;;;;;5.18;3.15;;;17.40;99.90;;;;;;5093920;28;20036;-65
2023/07/10 03:12:49;;;;;;;7.80;3.75;;;17.40;99.90;;;;;;5092372;28;20078;-64
2023/07/10 03:15:14;;;;;;;6.65;3.42;;;17.30;99.90;;;;;;5094055;28;20032;-64
2023/07/10 03:17:41;;;;;;;8.23;3.50;;;17.30;99.90;;;;;;5092528;28;20553;-64
2023/07/10 03:20:08;;;;;;;7.93;2.90;;;17.30;99.90;;;;;;5092411;28;20043;-65
2023/07/10 03:22:34;;;;;;;12.55;3.58;;;17.30;99.90;;;;;;5092738;28;20047;-64
2023/07/10 03:24:59;;;;;;;8.38;3.80;;;17.20;99.90;;;;;;5092529;28;20494;-64
2023/07/10 03:27:27;;;;;;;6.82;3.33;;;17.20;99.90;;;;;;5091878;28;20040;-64
2023/07/10 03:29:53;;;;;;;9.85;3.17;;;17.20;99.90;;;;;;5092557;28;20032;-64
2023/07/10 03:32:18;;;;;;;11.63;3.92;;;17.20;99.90;;;;;;5092192;28;20618;-64
2023/07/10 03:34:44;;;;;;;6.57;3.08;;;17.20;99.90;;;;;;5093300;28;20032;-64
2023/07/10 03:37:10;;;;;;;5.93;3.30;;;17.20;99.90;;;;;;5092545;28;20062;-64
2023/07/10 03:39:36;;;;;;;6.35;3.38;;;17.20;99.90;;;;;;5092652;28;20399;-64
2023/07/10 03:42:02;;;;;;;7.65;3.47;;;17.20;99.90;;;;;;5092538;28;20044;-64
2023/07/10 03:44:28;;;;;;;5.70;3.00;;;17.20;99.90;;;;;;5093437;28;20062;-64
2023/07/10 03:46:53;;;;;;;7.93;3.97;;;17.20;99.90;;;;;;5092575;28;20485;-64
2023/07/10 03:49:19;;;;;;;6.18;3.58;;;17.20;99.90;;;;;;5126527;27;20477;-64
2023/07/10 03:51:45;;;;;;;8.23;3.83;;;17.20;99.90;;;;;;5126543;27;20082;-68
2023/07/10 03:54:11;;;;;;;6.38;3.42;;;17.20;99.90;;;;;;5108834;28;20124;-68
2023/07/10 03:56:36;;;;;;;10.13;4.53;;;17.20;99.90;;;;;;5091761;28;20055;-68
2023/07/10 03:59:05;;;;;;;9.05;4.28;;;17.20;99.90;;;;;;5092023;28;20036;-68
2023/07/10 04:01:31;;;;;;;7.03;3.28;;;17.20;99.90;;;;;;5074453;28;20075;-68
2023/07/10 04:03:56;;;;;;;8.85;3.78;;;17.20;99.90;;;;;;5091882;28;20464;-69
2023/07/10 04:06:22;;;;;;;6.40;3.28;;;17.20;99.90;;;;;;5092808;28;20081;-69
2023/07/10 04:08:48;;;;;;;7.10;3.58;;;17.20;99.90;;;;;;5091243;28;20177;-69
2023/07/10 04:11:16;;;;;;;6.47;3.58;;;17.30;99.90;;;;;;5074917;28;20078;-69
2023/07/10 04:13:43;;;;;;;7.20;3.30;;;17.30;99.90;;;;;;5092639;28;20044;-69
2023/07/10 04:16:21;;;;;;;9.60;3.63;;;17.30;99.90;;;;;;5074538;28;20039;-69
2023/07/10 04:18:49;;;;;;;6.72;3.38;;;17.40;99.90;;;;;;5091895;28;20047;-69
2023/07/10 04:21:27;;;;;;;8.30;3.85;;;17.50;99.90;;;;;;5091696;28;20483;-69
2023/07/10 04:23:53;;;;;;;7.32;4.05;;;17.50;99.90;;;;;;5073933;28;20508;-69
2023/07/10 04:26:28;;;;;;;7.68;3.65;;;17.50;99.90;;;;;;5091519;28;20040;-69
2023/07/10 04:28:54;;;;;;;;;;;17.50;99.90;;;;;;5092609;28;20101;-69
2023/07/10 04:31:21;;;;;;;8.82;3.75;;;17.50;99.90;;;;;;5091628;28;19916;-69
2023/07/10 04:33:48;;;;;;;6.47;4.03;;;17.50;99.90;;;;;;5091424;28;20040;-69
2023/07/10 04:36:13;;;;;;;7.13;3.60;;;17.50;99.90;;;;;;5074043;28;20523;-69
2023/07/10 04:38:39;;;;;;;5.55;3.20;;;17.60;99.90;;;;;;5092660;28;20036;-68
2023/07/10 04:41:07;;;;;;;7.70;4.13;;;17.60;99.90;;;;;;5092465;28;20040;-68
2023/07/10 04:43:34;;;;;;;6.90;3.38;;;17.60;99.90;;;;;;5090615;28;20048;-68
2023/07/10 04:46:02;;;;;;;10.68;3.38;;;17.60;99.90;;;;;;5092564;28;20055;-69
2023/07/10 04:48:29;;;;;;;7.68;3.92;;;17.60;99.90;;;;;;5090779;28;20081;-68
2023/07/10 04:50:58;;;;;;;7.00;3.47;;;17.60;99.90;;;;;;5090639;28;20042;-68
2023/07/10 04:53:24;;;;;;;7.90;4.18;;;17.70;99.90;;;;;;5074495;28;20083;-68
2023/07/10 04:55:52;;;;;;;7.13;3.83;;;17.60;99.90;;;;;;5092272;28;20064;-68
2023/07/10 04:58:19;;;;;;;9.15;5.20;;;17.70;99.90;;;;;;5090463;28;20044;-68
2023/07/10 05:00:54;;;;;;;9.13;5.25;;;17.70;99.90;;;;;;5125958;27;20102;-69
2023/07/10 05:03:20;;;;;;;7.97;4.80;;;17.70;99.90;;;;;;5090758;28;20126;-69
2023/07/10 05:05:57;;;;;;;6.30;4.07;;;17.70;99.90;;;;;;5124605;27;20119;-69
2023/07/10 05:08:25;;;;;;;10.07;5.13;;;17.80;99.90;;;;;;5092442;28;20040;-69
2023/07/10 05:10:51;;;;;;;10.82;5.53;;;17.80;99.90;;;;;;5092086;28;20036;-69
2023/07/10 05:13:22;;;;;;;8.95;5.57;;;17.80;99.90;;;;;;5090598;28;20119;-69
2023/07/10 05:15:48;;;;;;;13.10;5.80;;;17.80;99.90;;;;;;5090902;28;20115;-64
2023/07/10 05:18:15;;;;;;;9.40;5.93;;;17.90;99.90;;;;;;5091268;28;20040;-64
2023/07/10 05:20:43;;;;;;;10.63;5.10;;;17.90;99.90;;;;;;5090853;28;20049;-64
2023/07/10 05:23:09;;;;;;;10.93;6.03;;;17.80;99.90;;;;;;5124773;28;20040;-64
2023/07/10 05:25:36;;;;;;;10.05;5.32;;;17.80;99.90;;;;;;5124101;27;20119;-64
2023/07/10 05:28:01;;;;;;;9.88;5.75;;;17.80;99.90;;;;;;5096147;28;20149;-64
2023/07/10 05:30:31;;;;;;;10.55;5.25;;;17.80;99.90;;;;;;5094657;28;20048;-64
2023/07/10 05:32:57;;;;;;;8.90;5.00;;;17.80;99.90;;;;;;5094499;28;20492;-64
2023/07/10 05:35:23;;;;;;;8.23;4.72;;;17.80;99.90;;;;;;5094779;28;20047;-64
2023/07/10 05:37:49;;;;;;;9.95;5.85;;;17.70;99.90;;;;;;5094646;28;20040;-64
2023/07/10 05:40:15;;;;;;;8.18;4.93;;;17.70;99.90;;;;;;5094014;28;20104;-63
2023/07/10 05:42:42;;;;;;;11.82;5.93;;;17.70;99.90;;;;;;5095976;28;20039;-64
2023/07/10 05:45:08;;;;;;;11.30;5.50;;;17.70;99.90;;;;;;5095453;28;20056;-64
2023/07/10 05:47:34;;;;;;;10.35;5.28;;;17.80;99.90;;;;;;5091924;28;20492;-64
2023/07/10 05:49:59;;;;;;;9.82;5.03;;;17.90;99.90;;;;;;5110300;27;20051;-64
2023/07/10 05:52:25;;;;;;;11.10;5.40;;;18.00;99.90;;;;;;5080014;28;20511;-64
2023/07/10 05:54:52;;;;;;;9.23;5.25;;;18.10;99.90;;;;;;5128314;27;20055;-64
2023/07/10 05:57:17;;;;;;;11.93;6.68;;;18.20;99.90;;;;;;5095646;28;20032;-64
2023/07/10 05:59:43;;;;;;;12.68;5.95;;;18.30;99.90;;;;;;5077034;28;20510;-64
2023/07/10 06:02:11;;;;;;;11.45;5.60;;;18.40;99.90;;;;;;5076473;28;20037;-64
2023/07/10 06:04:37;;;;;;;11.00;5.72;;;18.50;99.90;;;;;;5074609;28;20131;-64
2023/07/10 06:07:03;;;;;;;11.27;5.82;;;18.70;99.90;;;;;;5088033;28;20480;-64
2023/07/10 06:09:29;;;;;;;10.88;5.03;;;18.70;99.90;;;;;;5090425;28;20079;-64
2023/07/10 06:11:54;;;;;;;8.48;4.68;;;18.90;99.90;;;;;;5091827;28;20040;-64
2023/07/10 06:14:20;;;;;;;11.20;4.93;;;19.00;99.90;;;;;;5089717;28;20055;-64
2023/07/10 06:16:46;;;;;;;8.93;4.53;;;19.10;99.90;;;;;;5090719;28;20043;-64
2023/07/10 06:19:12;;;;;;;8.57;3.95;;;19.20;99.90;;;;;;5090478;28;20048;-65
2023/07/10 06:21:37;;;;;;;10.68;4.90;;;19.30;99.90;;;;;;5073754;28;20121;-64
2023/07/10 06:24:04;;;;;;;13.60;4.80;;;19.40;99.90;;;;;;5090674;28;20589;-64
2023/07/10 06:26:30;;;;;;;8.23;4.13;;;19.50;99.90;;;;;;5090005;28;20163;-64
2023/07/10 06:28:55;;;;;;;8.48;3.90;;;19.50;99.90;;;;;;5090036;28;20542;-64
2023/07/10 06:31:21;;;;;;;9.48;4.38;;;19.60;99.90;;;;;;5091632;28;20100;-64
2023/07/10 06:33:47;;;;;;;10.43;3.70;;;19.70;99.90;;;;;;5090516;28;20075;-64
2023/07/10 06:36:13;;;;;;;8.98;4.07;;;19.80;99.90;;;;;;5072514;28;20480;-64
2023/07/10 06:38:38;;;;;;;10.98;3.85;;;19.90;99.90;;;;;;5090065;28;20470;-64
2023/07/10 06:41:07;;;;;;;14.73;4.53;;;19.90;99.90;;;;;;5089156;28;20067;-64
2023/07/10 06:43:34;;;;;;;7.40;3.80;;;19.90;99.90;;;;;;5089744;28;20056;-64
2023/07/10 06:46:00;;;;;;;12.20;4.65;;;20.00;99.90;;;;;;5072969;28;20040;-64
2023/07/10 06:48:26;;;;;;;12.27;4.32;;;20.10;99.90;;;;;;5090911;28;20124;-64
2023/07/10 06:50:54;;;;;;;7.63;3.40;;;20.10;99.90;;;;;;5090918;28;20071;-65
2023/07/10 06:53:20;;;;;;;8.23;3.97;;;20.20;99.90;;;;;;5090036;28;20369;-64
2023/07/10 06:55:56;;;;;;;10.10;3.65;;;20.40;99.90;;;;;;5088886;28;20040;-64
2023/07/10 06:58:22;;;;;;;9.23;3.20;;;20.40;99.90;;;;;;5090767;28;20047;-64
2023/07/10 07:00:47;;;;;;;11.32;3.58;;;20.40;99.90;;;;;;5090907;28;20044;-64
2023/07/10 07:03:13;;;;;;;8.30;3.45;;;20.50;99.90;;;;;;5089069;28;20500;-64
2023/07/10 07:05:44;;;;;;;9.52;3.10;;;20.40;99.90;;;;;;5089448;28;20052;-64
2023/07/10 07:08:10;;;;;;;11.45;3.53;;;20.30;99.90;;;;;;5089506;28;20472;-64
2023/07/10 07:10:43;;;;;;;10.15;3.65;;;20.40;99.90;;;;;;5088868;28;20101;-64
2023/07/10 07:13:10;;;;;;;10.10;3.70;;;20.50;99.90;;;;;;5089265;28;20035;-64
2023/07/10 07:15:35;;;;;;;8.38;3.15;;;20.40;99.90;;;;;;5089481;28;20102;-64
2023/07/10 07:18:03;;;;;;;7.85;3.20;;;20.50;99.90;;;;;;5089607;28;20059;-64
2023/07/10 07:20:29;;;;;;;8.90;3.85;;;20.50;99.90;;;;;;5090438;28;20084;-64
2023/07/10 07:22:58;;;;;;;12.48;3.78;;;20.60;99.90;;;;;;5090434;28;20051;-64
2023/07/10 07:25:30;;;;;;;9.68;3.47;;;20.70;99.90;;;;;;5110664;28;20507;-64
2023/07/10 07:27:59;;;;;;;7.22;3.05;;;20.70;99.90;;;;;;5110185;28;20048;-64
2023/07/10 07:30:25;;;;;;;11.65;3.40;;;20.70;99.90;;;;;;5091545;28;20101;-64
2023/07/10 07:32:51;;;;;;;10.25;3.55;;;20.70;99.90;;;;;;5090558;28;20846;-64
2023/07/10 07:35:16;;;;;;;8.93;2.80;;;20.80;99.90;;;;;;5089696;28;20044;-64
2023/07/10 07:37:42;;;;;;;9.88;3.28;;;20.80;99.90;;;;;;5089338;28;20479;-64
2023/07/10 07:40:09;;;;;;;9.98;4.03;;;20.90;99.90;;;;;;5089620;28;20052;-64
2023/07/10 07:42:35;;;;;;;9.10;2.92;;;20.90;99.90;;;;;;5086870;28;20505;-64
2023/07/10 07:45:02;;;;;;;7.47;3.30;;;21.00;99.90;;;;;;5117426;27;20103;-64
2023/07/10 07:47:28;;;;;;;9.60;2.95;;;21.00;99.90;;;;;;5088640;28;20040;-64
2023/07/10 07:49:55;;;;;;;11.68;3.65;;;21.10;99.90;;;;;;5088668;28;20051;-64
2023/07/10 07:52:20;;;;;;;10.10;3.55;;;21.20;99.90;;;;;;5089153;28;20044;-64
2023/07/10 07:54:48;;;;;;;9.82;3.17;;;21.30;99.90;;;;;;5086613;28;20141;-64
2023/07/10 07:57:14;;;;;;;8.43;3.53;;;21.30;99.90;;;;;;5090322;28;20048;-64
2023/07/10 07:59:40;;;;;;;8.15;3.25;;;21.30;99.90;;;;;;5089711;28;20394;-64
2023/07/10 08:02:08;;;;;;;10.32;3.22;;;21.30;99.90;;;;;;5088365;28;20560;-64
2023/07/10 08:04:33;;;;;;;12.10;4.40;;;21.30;99.90;;;;;;5089531;28;20528;-64
2023/07/10 08:06:59;;;;;;;7.82;3.33;;;21.40;99.90;;;;;;5087281;28;20078;-64
2023/07/10 08:09:25;;;;;;;11.27;4.07;;;21.40;99.90;;;;;;5088135;28;20040;-64
2023/07/10 08:11:50;;;;;;;13.57;3.70;;;21.40;99.90;;;;;;5088355;28;20122;-64
2023/07/10 08:14:16;;;;;;;9.63;3.40;;;21.50;99.90;;;;;;5089658;28;20092;-64
2023/07/10 08:16:42;;;;;;;8.35;3.40;;;21.50;99.90;;;;;;5090472;28;20037;-66
2023/07/10 08:19:07;;;;;;;8.88;3.95;;;21.50;99.90;;;;;;5089732;28;20039;-64
2023/07/10 08:21:33;;;;;;;10.38;3.20;;;21.50;99.90;;;;;;5104448;28;20507;-65
2023/07/10 08:23:59;;;;;;;8.82;3.30;;;21.40;99.90;;;;;;5091173;28;20349;-65
2023/07/10 08:26:25;;;;;;;9.25;3.42;;;21.40;99.90;;;;;;5088701;28;20055;-64
2023/07/10 08:28:50;;;;;;;10.40;3.53;;;21.40;99.90;;;;;;5088429;28;20486;-64
2023/07/10 08:31:17;;;;;;;12.48;3.80;;;21.50;99.90;;;;;;5089238;28;20036;-65
2023/07/10 08:33:42;;;;;;;8.90;4.00;;;21.60;99.90;;;;;;5089864;28;20036;-64
2023/07/10 08:36:08;;;;;;;10.02;3.38;;;21.60;99.90;;;;;;5088369;28;20036;-64
2023/07/10 08:38:36;;;;;;;11.90;4.68;;;21.60;99.90;;;;;;5093590;28;20038;-64
2023/07/10 08:41:18;;;;;;;11.02;3.55;;;21.70;99.90;;;;;;5108493;28;20032;-64
2023/07/10 08:43:46;;;;;;;7.57;3.38;;;21.80;99.90;;;;;;5090602;28;20428;-64
2023/07/10 08:46:21;;;;;;;13.13;3.47;;;21.90;99.90;;;;;;5089715;28;20556;-64
2023/07/10 08:49:03;;;;;;;11.13;3.95;;;22.10;99.90;;;;;;5070961;28;20038;-64
2023/07/10 08:51:54;;;;;;;8.38;3.05;;;22.10;99.90;;;;;;5088294;28;20051;-65
2023/07/10 08:54:19;;;;;;;8.20;3.35;;;22.10;99.90;;;;;;5071316;28;20040;-64
2023/07/10 08:57:06;;;;;;;10.45;3.38;;;22.00;99.90;;;;;;5121918;27;20481;-64
2023/07/10 08:59:53;;;;;;;12.38;3.47;;;22.00;99.90;;;;;;5089799;28;20048;-64
2023/07/10 09:02:37;;;;;;;11.63;4.70;;;22.00;99.90;;;;;;5087045;28;20077;-64
2023/07/10 09:05:06;;;;;;;10.77;3.47;;;22.00;99.90;;;;;;5088195;28;20114;-64
2023/07/10 09:07:42;;;;;;;14.52;3.80;;;21.90;99.90;;;;;;5104952;28;20048;-64
2023/07/10 09:10:14;;;;;;;7.90;3.30;;;21.90;99.90;;;;;;5088913;28;20035;-65
2023/07/10 09:12:45;;;;;;;10.52;3.65;;;21.90;99.90;;;;;;5087481;28;20044;-65
2023/07/10 09:15:30;;;;;;;13.88;3.80;;;21.90;99.90;;;;;;5088110;28;20079;-65
2023/07/10 09:18:37;;;;;;;13.00;3.33;;;21.90;99.90;;;;;;5087478;28;20093;-65
2023/07/10 09:21:16;;;;;;;10.15;3.75;;;22.00;99.90;;;;;;5080843;28;20097;-65
2023/07/10 09:23:44;;;;;;;11.40;4.72;;;22.10;99.90;;;;;;5088998;28;20101;-64
2023/07/10 09:26:18;;;;;;;11.80;3.17;;;22.10;99.90;;;;;;5087350;28;20122;-64
2023/07/10 09:28:56;;;;;;;10.43;3.17;;;22.00;99.90;;;;;;5071169;28;20044;-64
2023/07/10 09:31:51;;;;;;;12.32;3.00;;;22.00;99.90;;;;;;5070282;28;20042;-65
2023/07/10 09:34:23;;;;;;;9.75;2.70;;;22.10;99.90;;;;;;5087795;28;20393;-64
2023/07/10 09:36:54;;;;;;;11.40;3.60;;;22.10;99.90;;;;;;5087327;28;20051;-65
2023/07/10 09:39:20;;;;;;;9.80;3.58;;;22.10;99.90;;;;;;5086874;28;20159;-64
2023/07/10 09:41:47;;;;;;;7.80;3.08;;;22.20;99.90;;;;;;5085474;28;20048;-64
2023/07/10 09:44:18;;;;;;;9.43;3.75;;;22.30;99.90;;;;;;5088392;28;20405;-62
2023/07/10 09:46:45;;;;;;;12.82;3.78;;;22.20;99.90;;;;;;5087315;28;20083;-64
2023/07/10 09:49:22;;;;;;;10.38;3.15;;;22.20;99.90;;;;;;5088834;28;20484;-65
2023/07/10 09:51:56;;;;;;;10.63;3.83;;;22.20;99.90;;;;;;5087789;28;20443;-65
2023/07/10 09:54:22;;;;;;;10.13;2.90;;;22.40;99.90;;;;;;5070552;28;20488;-65
2023/07/10 09:56:50;;;;;;;10.13;3.25;;;22.40;99.90;;;;;;5086790;28;20101;-64
2023/07/10 09:59:22;;;;;;;13.55;3.95;;;22.60;99.90;;;;;;5070817;28;20055;-65
2023/07/10 10:01:50;;;;;;;12.07;4.50;;;22.80;99.90;;;;;;5069999;28;20040;-65
2023/07/10 10:04:28;;;;;;;9.70;3.63;;;22.90;99.90;;;;;;5087056;28;20040;-66
2023/07/10 10:07:03;;;;;;;12.48;4.13;;;22.90;99.90;;;;;;5121159;28;20047;-65
2023/07/10 10:09:29;;;;;;;;;;;22.90;99.90;;;;;;5091063;28;20064;-66
2023/07/10 10:12:20;;;;;;;10.93;4.15;;;22.80;99.90;;;;;;5072626;28;19916;-65
2023/07/10 10:14:58;;;;;;;8.98;3.60;;;22.60;99.90;;;;;;5092304;28;20036;-64
2023/07/10 10:17:25;;;;;;;9.73;3.22;;;22.40;99.90;;;;;;5093068;28;20035;-64
2023/07/10 10:20:01;;;;;;;7.60;3.47;;;22.30;99.90;;;;;;5076660;28;20075;-64
2023/07/10 10:22:29;;;;;;;9.43;3.72;;;22.10;99.90;;;;;;5092947;28;20036;-65
2023/07/10 10:24:55;;;;;;;13.00;3.22;;;22.10;99.90;;;;;;5076166;28;20036;-64
2023/07/10 10:27:39;;;;;;;14.57;4.43;;;22.20;99.90;;;;;;5094590;28;20048;-64
2023/07/10 10:30:30;;;;;;;11.27;4.03;;;22.40;99.90;;;;;;5094802;28;20028;-64
2023/07/10 10:33:30;;;;;;;11.07;3.08;;;22.60;99.90;;;;;;5072826;28;20072;-64
2023/07/10 10:36:21;;;;;;;11.63;3.55;;;22.60;99.90;;;;;;5092098;28;20057;-65
2023/07/10 10:39:08;;;;;;;9.15;3.00;;;22.70;99.90;;;;;;5088801;28;20036;-64
2023/07/10 10:41:56;;;;;;;7.25;2.80;;;22.90;99.90;;;;;;5090130;28;20089;-64
2023/07/10 10:44:34;;;;;;;9.48;3.10;;;23.20;99.90;;;;;;5094942;28;20105;-65
2023/07/10 10:47:34;;;;;;;6.93;2.78;;;23.40;99.90;;;;;;5093474;28;20051;-64
2023/07/10 10:50:14;;;;;;;10.43;2.88;;;23.60;99.90;;;;;;5093539;28;20439;-64
2023/07/10 10:52:54;;;;;;;10.30;3.13;;;23.50;99.90;;;;;;5076399;28;20552;-64
2023/07/10 10:55:47;;;;;;;11.30;2.85;;;23.30;99.90;;;;;;5094581;28;20032;-64
2023/07/10 10:58:31;;;;;;;10.30;3.25;;;23.50;99.90;;;;;;5118537;27;20043;-64
2023/07/10 11:01:10;;;;;;;8.40;2.25;;;23.70;99.90;;;;;;5093711;28;20050;-64
2023/07/10 11:03:45;;;;;;;5.60;2.55;;;23.60;99.90;;;;;;5093450;28;20036;-64
2023/07/10 11:06:40;;;;;;;10.70;2.95;;;23.50;99.90;;;;;;5093889;28;20040;-62
2023/07/10 11:09:16;;;;;;;7.25;2.60;;;23.20;99.90;;;;;;5093206;28;20055;-63
2023/07/10 11:11:42;;;;;;;7.88;2.50;;;22.90;99.90;;;;;;5092241;28;20096;-62
2023/07/10 11:14:12;;;;;;;9.55;2.60;;;22.70;99.90;;;;;;5094070;28;20031;-62
2023/07/10 11:16:38;;;;;;;10.25;2.55;;;22.60;99.90;;;;;;5092504;28;20028;-63
2023/07/10 11:19:05;;;;;;;8.20;2.55;;;22.50;99.90;;;;;;5075749;28;20106;-63
2023/07/10 11:21:32;;;;;;;13.32;4.28;;;22.40;99.90;;;;;;5092850;28;20388;-63
2023/07/10 11:24:16;;;;;;;10.00;2.92;;;22.40;99.90;;;;;;5092018;28;20403;-62
2023/07/10 11:26:42;;;;;;;7.28;2.83;;;22.50;99.90;;;;;;5094354;28;20047;-63
2023/07/10 11:29:30;;;;;;;10.65;3.10;;;22.50;99.90;;;;;;5092685;28;20067;-68
2023/07/10 11:31:59;;;;;;;8.25;3.33;;;22.30;99.90;;;;;;5093358;28;20062;-69
2023/07/10 11:34:25;;;;;;;10.77;2.65;;;22.30;99.90;;;;;;5093409;28;20124;-68
2023/07/10 11:36:51;;;;;;;8.77;2.97;;;22.40;99.90;;;;;;5092399;28;20084;-68
2023/07/10 11:39:33;;;;;;;6.88;2.28;;;22.70;99.90;;;;;;5092851;28;20433;-68
2023/07/10 11:42:02;;;;;;;11.48;3.00;;;23.00;99.90;;;;;;5095577;28;20062;-69
2023/07/10 11:44:33;;;;;;;10.52;2.85;;;23.10;99.90;;;;;;5075393;28;20125;-69
2023/07/10 11:47:05;;;;;;;9.63;2.60;;;23.20;99.90;;;;;;5091348;28;20044;-69
2023/07/10 11:49:40;;;;;;;10.43;2.45;;;23.10;99.90;;;;;;5114829;27;20044;-69
2023/07/10 11:52:13;;;;;;;7.10;2.63;;;23.20;99.90;;;;;;5093803;28;20036;-69
2023/07/10 11:54:48;;;;;;;6.97;2.75;;;23.30;99.90;;;;;;5126733;27;20036;-69
2023/07/10 11:57:24;;;;;;;10.15;2.95;;;23.30;99.90;;;;;;5075743;28;20040;-69
2023/07/10 11:59:54;;;;;;;10.25;3.08;;;23.20;99.90;;;;;;5091291;28;20131;-69
2023/07/10 12:02:43;;;;;;;10.48;2.40;;;23.20;99.90;;;;;;5093525;28;20028;-69
2023/07/10 12:05:21;;;;;;;9.27;2.40;;;23.30;99.90;;;;;;5092096;28;20075;-68
2023/07/10 12:08:01;;;;;;;8.55;2.53;;;23.40;99.90;;;;;;5091124;28;20040;-69
2023/07/10 12:10:29;;;;;;;8.88;2.55;;;23.30;99.90;;;;;;5091589;28;20134;-68
2023/07/10 12:12:57;;;;;;;6.68;2.45;;;23.20;99.90;;;;;;5092742;28;20035;-68
2023/07/10 12:15:23;;;;;;;5.50;2.10;;;23.10;99.90;;;;;;5093227;28;20043;-68
2023/07/10 12:17:51;;;;;;;7.70;2.05;;;23.20;99.90;;;;;;5091837;28;20036;-68
2023/07/10 12:20:31;;;;;;;9.88;2.78;;;23.50;99.90;;;;;;5091304;28;20338;-68
2023/07/10 12:23:11;;;;;;;6.10;1.60;;;23.90;99.90;;;;;;5091853;28;20048;-68
2023/07/10 12:25:37;;;;;;;6.90;2.10;;;24.00;99.90;;;;;;5091735;28;20048;-68
2023/07/10 12:28:13;;;;;;;7.13;2.75;;;24.10;99.90;;;;;;5090990;28;20512;-68
2023/07/10 12:30:39;;;;;;;10.65;2.55;;;23.90;99.90;;;;;;5075085;28;20115;-68
2023/07/10 12:33:33;;;;;;;8.23;2.08;;;23.80;99.90;;;;;;5091885;28;20177;-68
2023/07/10 12:36:16;;;;;;;7.50;2.28;;;23.90;99.90;;;;;;5073894;28;20114;-68
2023/07/10 12:38:42;;;;;;;6.82;1.67;;;24.00;99.90;;;;;;5091441;28;20054;-68
2023/07/10 12:41:08;;;;;;;5.47;1.58;;;23.90;99.90;;;;;;5092517;28;20040;-68
2023/07/10 12:43:33;;;;;;;6.80;2.03;;;23.70;99.00;;;;;;5090976;28;20060;-68
2023/07/10 12:46:13;;;;;;;8.13;1.77;;;23.70;99.10;;;;;;5091319;28;20044;-68
2023/07/10 12:48:40;;;;;;;5.40;1.67;;;23.70;98.30;;;;;;5090896;28;20393;-68
2023/07/10 12:51:07;;;;;;;5.30;1.60;;;23.80;97.90;;;;;;5091850;28;20044;-68
2023/07/10 12:53:40;;;;;;;5.80;1.40;;;23.90;97.50;;;;;;5090955;28;20089;-67
2023/07/10 12:56:21;;;;;;;5.82;1.80;;;24.00;95.30;;;;;;5092242;28;20044;-68